Time;durP1;ratioP1;P1;durP2;ratioP2;P2;SDS_P1;SDS_P2;PMS_P1;PMS_P2;Temp;Humidity;BMP_temperature;BMP_pressure;BME280_temperature;BME280_humidity;BME280_pressure;Samples;Min_cycle;Max_cycle;Signal;HPM_P1;HPM_P2
2022/09/07 00:02:34;;;;;;;4.63;1.92;;;27.90;56.50;;;;;;10413232;28;20136;-33
2022/09/07 00:07:37;;;;;;;5.53;2.30;;;27.90;56.50;;;;;;10406694;28;20045;-33
2022/09/07 00:12:39;;;;;;;3.05;1.40;;;27.90;56.50;;;;;;10398603;28;20059;-35
2022/09/07 00:17:41;;;;;;;4.15;1.30;;;27.80;56.50;;;;;;10399474;28;20089;-33
2022/09/07 00:22:45;;;;;;;2.38;1.40;;;27.80;56.60;;;;;;10414361;28;20065;-31
2022/09/07 00:27:47;;;;;;;2.60;0.90;;;27.80;56.70;;;;;;10418929;28;20493;-32
2022/09/07 00:32:49;;;;;;;2.22;0.77;;;27.80;56.70;;;;;;10415287;28;20501;-34
2022/09/07 00:37:52;;;;;;;1.35;0.70;;;27.70;56.70;;;;;;10403084;28;20076;-34
2022/09/07 00:42:53;;;;;;;1.90;0.60;;;27.70;56.70;;;;;;10401124;28;20045;-34
2022/09/07 00:47:59;;;;;;;1.20;0.73;;;27.70;56.80;;;;;;10408585;28;20140;-34
2022/09/07 00:53:10;;;;;;;3.13;0.90;;;27.70;56.80;;;;;;10402444;28;20049;-33
2022/09/07 00:58:12;;;;;;;3.47;0.80;;;27.60;56.80;;;;;;10406552;28;20042;-34
2022/09/07 01:03:16;;;;;;;1.02;0.45;;;27.60;56.90;;;;;;10402829;28;20132;-33
2022/09/07 01:08:19;;;;;;;1.35;0.55;;;27.90;57.10;;;;;;10407816;28;20053;-34
2022/09/07 01:13:21;;;;;;;1.90;0.60;;;27.60;57.00;;;;;;10403963;28;20100;-34
2022/09/07 01:18:29;;;;;;;0.88;0.63;;;27.50;56.90;;;;;;10398983;28;20133;-34
2022/09/07 01:24:01;;;;;;;1.00;0.50;;;27.50;56.90;;;;;;10405407;28;20073;-33
2022/09/07 01:29:12;;;;;;;1.17;0.60;;;27.50;56.90;;;;;;10405996;28;20074;-33
2022/09/07 01:34:19;;;;;;;;;;;27.50;57.00;;;;;;10396582;28;20041;-33
2022/09/07 01:39:28;;;;;;;1.83;0.60;;;27.50;57.10;;;;;;10410208;28;19976;-34
2022/09/07 01:44:37;;;;;;;0.45;0.45;;;27.40;57.00;;;;;;10392044;28;20077;-34
2022/09/07 01:49:42;;;;;;;1.80;0.52;;;27.50;57.20;;;;;;10480775;28;20516;-33
2022/09/07 01:54:47;;;;;;;2.88;0.65;;;27.40;57.10;;;;;;10502085;28;20048;-35
2022/09/07 01:59:55;;;;;;;2.17;0.82;;;27.30;57.00;;;;;;10503554;28;20048;-32
2022/09/07 02:05:01;;;;;;;4.13;0.60;;;27.40;57.10;;;;;;10494362;28;20418;-34
2022/09/07 02:10:08;;;;;;;2.15;0.63;;;27.30;57.60;;;;;;10493567;28;20083;-34
2022/09/07 02:15:15;;;;;;;0.98;0.60;;;27.30;57.00;;;;;;10502836;28;20441;-34
2022/09/07 02:20:21;;;;;;;0.80;0.40;;;27.30;57.00;;;;;;10500010;28;20051;-34
2022/09/07 02:25:28;;;;;;;3.65;1.02;;;27.30;57.10;;;;;;10488293;28;20477;-33
2022/09/07 02:30:31;;;;;;;1.83;0.90;;;27.30;57.00;;;;;;10493981;28;20056;-34
2022/09/07 02:35:33;;;;;;;3.08;0.70;;;27.20;57.10;;;;;;10491992;28;20139;-34
2022/09/07 02:40:35;;;;;;;0.90;0.60;;;27.10;57.00;;;;;;10486990;28;20448;-33
2022/09/07 02:45:55;;;;;;;2.30;1.30;;;27.20;57.10;;;;;;10473138;28;20132;-34
2022/09/07 02:51:08;;;;;;;1.10;0.65;;;27.20;57.20;;;;;;10489912;28;20094;-34
2022/09/07 02:56:19;;;;;;;1.52;0.80;;;27.20;57.20;;;;;;10478808;28;20076;-34
2022/09/07 03:01:33;;;;;;;1.67;1.00;;;27.10;57.10;;;;;;10488057;28;20515;-34
2022/09/07 03:06:40;;;;;;;1.17;0.70;;;27.10;57.20;;;;;;10482187;28;20469;-34
2022/09/07 03:11:42;;;;;;;2.45;1.27;;;27.10;57.20;;;;;;10484943;28;20052;-34
2022/09/07 03:16:47;;;;;;;0.85;0.85;;;27.10;57.20;;;;;;10490071;28;20073;-35
2022/09/07 03:21:49;;;;;;;0.68;0.50;;;27.60;57.70;;;;;;10489914;28;20051;-33
2022/09/07 03:26:51;;;;;;;1.25;0.70;;;27.00;57.30;;;;;;10496365;28;20726;-34
2022/09/07 03:31:54;;;;;;;0.93;0.50;;;27.00;57.30;;;;;;10497538;28;20075;-34
2022/09/07 03:36:56;;;;;;;1.30;0.57;;;27.00;57.40;;;;;;10481738;28;20182;-34
2022/09/07 03:41:58;;;;;;;0.98;0.60;;;26.90;57.20;;;;;;10488985;28;20098;-34
2022/09/07 03:47:02;;;;;;;1.63;0.52;;;26.90;57.30;;;;;;10476671;28;20055;-35
2022/09/07 03:52:04;;;;;;;1.42;0.40;;;26.90;57.40;;;;;;10446531;28;20501;-33
2022/09/07 03:57:06;;;;;;;0.90;0.50;;;26.90;57.40;;;;;;10449950;28;20072;-37
2022/09/07 04:02:09;;;;;;;0.63;0.43;;;26.80;57.40;;;;;;10449486;28;20044;-34
2022/09/07 04:07:11;;;;;;;1.40;0.47;;;26.80;57.40;;;;;;10419537;28;20132;-33
2022/09/07 04:12:13;;;;;;;0.85;0.52;;;26.80;57.40;;;;;;10431905;28;20092;-30
2022/09/07 04:17:16;;;;;;;1.85;0.63;;;26.70;57.40;;;;;;10445335;28;20139;-34
2022/09/07 04:22:18;;;;;;;1.20;0.55;;;26.90;57.60;;;;;;10433522;28;20438;-33
2022/09/07 04:27:20;;;;;;;1.52;0.60;;;26.50;57.30;;;;;;10428134;28;20494;-33
2022/09/07 04:32:23;;;;;;;0.40;0.40;;;26.70;57.30;;;;;;10434401;28;20127;-33
2022/09/07 04:37:25;;;;;;;0.45;0.40;;;26.60;57.40;;;;;;10424046;28;20612;-33
2022/09/07 04:42:27;;;;;;;0.90;0.50;;;26.60;57.40;;;;;;10430589;28;20068;-35
2022/09/07 04:47:30;;;;;;;1.70;0.60;;;26.60;57.50;;;;;;10421936;28;20049;-34
2022/09/07 04:52:33;;;;;;;1.15;0.73;;;26.60;57.50;;;;;;10413410;28;20049;-34
2022/09/07 04:57:35;;;;;;;2.22;0.43;;;26.60;57.50;;;;;;10431587;28;20401;-33
2022/09/07 05:02:38;;;;;;;0.50;0.50;;;26.60;57.50;;;;;;10424143;28;20577;-34
2022/09/07 05:07:40;;;;;;;0.75;0.65;;;26.50;57.50;;;;;;10445691;28;20408;-35
2022/09/07 05:12:41;;;;;;;5.20;0.98;;;26.50;57.60;;;;;;10432421;28;20136;-32
2022/09/07 05:17:44;;;;;;;4.82;0.90;;;26.50;57.60;;;;;;10430079;28;20059;-34
2022/09/07 05:22:47;;;;;;;1.27;0.60;;;26.50;57.60;;;;;;10424446;28;20096;-32
2022/09/07 05:27:48;;;;;;;1.00;0.57;;;26.50;57.60;;;;;;10434527;28;20542;-33
2022/09/07 05:32:52;;;;;;;2.10;0.90;;;27.00;58.00;;;;;;10427580;28;20045;-32
2022/09/07 05:37:54;;;;;;;2.13;0.98;;;26.50;57.70;;;;;;10429190;28;20048;-34
2022/09/07 05:42:56;;;;;;;3.83;1.90;;;26.40;57.50;;;;;;10429381;28;20512;-35
2022/09/07 05:47:59;;;;;;;6.28;2.33;;;26.40;57.50;;;;;;10445751;28;20084;-35
2022/09/07 05:53:01;;;;;;;3.90;1.88;;;26.30;57.40;;;;;;10423432;28;20055;-33
2022/09/07 05:58:03;;;;;;;4.20;2.65;;;26.30;57.20;;;;;;10431156;28;20076;-34
2022/09/07 06:03:06;;;;;;;6.60;3.40;;;26.30;57.30;;;;;;10420451;28;20052;-34
2022/09/07 06:08:08;;;;;;;6.35;3.08;;;26.30;57.40;;;;;;10430491;28;20056;-33
2022/09/07 06:13:10;;;;;;;5.43;1.73;;;26.30;57.20;;;;;;10441271;28;20045;-33
2022/09/07 06:18:13;;;;;;;3.30;1.70;;;26.40;57.20;;;;;;10447881;28;20619;-33
2022/09/07 06:23:15;;;;;;;4.68;1.17;;;26.40;57.20;;;;;;10431230;28;20115;-33
2022/09/07 06:28:16;;;;;;;3.08;1.33;;;26.50;57.10;;;;;;10439123;28;20051;-34
2022/09/07 06:33:20;;;;;;;3.50;0.93;;;26.40;57.10;;;;;;10430129;28;20203;-33
2022/09/07 06:38:21;;;;;;;1.75;0.70;;;26.40;57.20;;;;;;10450188;28;20069;-35
2022/09/07 06:43:23;;;;;;;2.78;0.80;;;26.50;57.00;;;;;;10431092;28;20076;-34
2022/09/07 06:48:27;;;;;;;10.75;1.17;;;26.50;57.10;;;;;;10434559;28;20148;-34
2022/09/07 06:53:31;;;;;;;2.63;0.90;;;26.50;57.30;;;;;;10435143;28;20140;-36
2022/09/07 06:58:34;;;;;;;2.75;0.70;;;26.50;57.00;;;;;;10433174;28;20053;-35
2022/09/07 07:03:37;;;;;;;2.35;0.90;;;26.70;57.20;;;;;;10426768;28;20500;-33
2022/09/07 07:08:40;;;;;;;4.57;1.00;;;26.50;56.90;;;;;;10434295;28;20164;-33
2022/09/07 07:13:43;;;;;;;3.42;0.70;;;27.00;57.50;;;;;;10439813;28;20099;-35
2022/09/07 07:18:50;;;;;;;0.75;0.60;;;26.50;57.20;;;;;;10463351;28;20573;-35
2022/09/07 07:23:53;;;;;;;1.92;0.77;;;27.10;57.70;;;;;;10460975;28;20052;-33
2022/09/07 07:28:56;;;;;;;1.27;0.70;;;26.40;57.40;;;;;;10429313;28;20377;-35
2022/09/07 07:34:00;;;;;;;8.32;0.90;;;26.40;57.20;;;;;;10433931;28;20067;-34
2022/09/07 07:39:03;;;;;;;1.92;0.93;;;26.50;57.10;;;;;;10442699;28;20461;-35
2022/09/07 07:44:05;;;;;;;2.65;1.02;;;26.40;57.20;;;;;;10422736;28;20598;-32
2022/09/07 07:49:09;;;;;;;1.92;1.20;;;25.30;59.50;;;;;;10431511;28;20056;-34
2022/09/07 07:54:10;;;;;;;3.33;1.58;;;26.40;57.40;;;;;;10452134;28;20075;-33
2022/09/07 07:59:12;;;;;;;4.68;1.67;;;26.50;57.00;;;;;;10435543;28;20140;-34
2022/09/07 08:04:15;;;;;;;3.88;2.40;;;26.50;56.80;;;;;;10431345;28;20458;-34
2022/09/07 08:09:17;;;;;;;3.78;2.08;;;24.60;61.70;;;;;;10435246;28;20140;-35
2022/09/07 08:14:19;;;;;;;6.10;2.28;;;25.90;58.60;;;;;;10424158;28;20136;-33
2022/09/07 08:19:22;;;;;;;4.25;2.83;;;26.30;57.20;;;;;;10439624;28;20474;-33
2022/09/07 08:24:24;;;;;;;6.80;2.70;;;26.30;57.50;;;;;;10429925;28;20072;-34
2022/09/07 08:29:27;;;;;;;4.30;2.33;;;26.60;56.80;;;;;;10448466;28;20136;-37
2022/09/07 08:34:30;;;;;;;3.22;1.85;;;26.60;56.70;;;;;;10434498;28;20107;-34
2022/09/07 08:39:32;;;;;;;4.10;2.72;;;27.40;57.30;;;;;;10446102;28;20118;-34
2022/09/07 08:44:38;;;;;;;4.95;3.00;;;26.60;56.60;;;;;;10445177;28;20131;-35
2022/09/07 08:49:46;;;;;;;5.82;3.67;;;26.60;57.10;;;;;;10447461;28;20061;-34
2022/09/07 08:54:59;;;;;;;5.85;3.45;;;25.70;58.70;;;;;;10441656;28;20044;-35
2022/09/07 09:00:06;;;;;;;5.65;3.33;;;24.30;63.10;;;;;;10417146;28;20223;-33
2022/09/07 09:05:20;;;;;;;5.90;3.45;;;24.80;61.20;;;;;;10447053;28;20479;-32
2022/09/07 09:10:31;;;;;;;9.00;5.13;;;24.50;62.60;;;;;;10441224;28;20049;-34
2022/09/07 09:15:51;;;;;;;5.72;3.17;;;24.80;61.50;;;;;;10429957;28;20041;-33
2022/09/07 09:20:56;;;;;;;3.75;2.30;;;25.30;59.70;;;;;;10454849;28;20131;-33
2022/09/07 09:26:04;;;;;;;5.25;2.95;;;26.20;57.30;;;;;;10419938;28;20148;-34
2022/09/07 09:31:06;;;;;;;3.40;2.30;;;25.70;58.30;;;;;;10425551;28;20069;-35
2022/09/07 09:36:25;;;;;;;6.63;3.10;;;25.90;58.30;;;;;;10443420;28;20051;-34
2022/09/07 09:41:36;;;;;;;6.55;2.63;;;26.00;58.10;;;;;;10427992;28;20041;-34
2022/09/07 09:46:38;;;;;;;3.50;1.90;;;26.20;57.30;;;;;;10450184;28;20072;-34
2022/09/07 09:51:45;;;;;;;2.40;1.95;;;26.50;56.80;;;;;;10490597;28;20131;-34
2022/09/07 09:56:48;;;;;;;5.03;1.83;;;25.70;58.50;;;;;;10481095;28;20079;-34
2022/09/07 10:01:50;;;;;;;7.20;2.75;;;25.90;57.80;;;;;;10479791;28;20045;-34
2022/09/07 10:06:55;;;;;;;6.72;1.67;;;24.00;63.00;;;;;;10482360;28;20072;-35
2022/09/07 10:11:59;;;;;;;9.70;3.28;;;25.50;59.00;;;;;;10478696;28;20056;-34
2022/09/07 10:17:10;;;;;;;9.75;1.95;;;25.00;59.70;;;;;;10486375;28;20045;-34
2022/09/07 10:22:30;;;;;;;4.60;1.30;;;24.00;62.60;;;;;;10486689;28;20067;-34
2022/09/07 10:27:35;;;;;;;3.70;1.48;;;24.90;60.90;;;;;;10490682;28;20415;-34
2022/09/07 10:32:51;;;;;;;6.03;1.67;;;25.10;60.50;;;;;;10472472;28;20110;-34
2022/09/07 10:38:04;;;;;;;5.80;1.15;;;25.60;59.00;;;;;;10497750;28;20495;-34
2022/09/07 10:43:26;;;;;;;1.92;0.80;;;26.50;56.70;;;;;;10491225;28;20526;-34
2022/09/07 10:48:34;;;;;;;4.72;1.10;;;26.50;57.00;;;;;;10482975;28;20059;-33
2022/09/07 10:53:45;;;;;;;3.67;1.20;;;26.30;57.40;;;;;;10494629;28;20531;-34
2022/09/07 10:59:00;;;;;;;2.70;0.88;;;25.80;58.00;;;;;;10488203;28;20133;-34
2022/09/07 11:04:22;;;;;;;3.20;1.10;;;26.00;58.20;;;;;;10490682;28;20075;-34
2022/09/07 11:09:38;;;;;;;10.40;1.40;;;25.90;57.40;;;;;;10494977;28;20101;-33
2022/09/07 11:14:44;;;;;;;4.50;1.45;;;26.00;58.10;;;;;;10478760;28;20396;-34
2022/09/07 11:19:53;;;;;;;3.47;0.88;;;26.40;56.20;;;;;;10486525;28;20132;-32
2022/09/07 11:25:04;;;;;;;4.35;0.82;;;26.50;56.30;;;;;;10478769;28;20048;-34
2022/09/07 11:30:17;;;;;;;5.77;0.97;;;27.30;54.80;;;;;;10480767;28;20110;-34
2022/09/07 11:35:26;;;;;;;3.53;1.05;;;26.90;55.50;;;;;;10491113;28;20045;-32
2022/09/07 11:40:33;;;;;;;4.68;1.20;;;27.30;53.90;;;;;;10477489;28;20040;-34
2022/09/07 11:45:41;;;;;;;4.40;1.38;;;27.10;54.90;;;;;;10484512;28;20072;-33
2022/09/07 11:50:48;;;;;;;3.58;1.00;;;26.90;55.60;;;;;;10483645;28;20084;-33
2022/09/07 11:55:56;;;;;;;8.90;1.60;;;27.30;54.60;;;;;;10483613;28;20123;-34
2022/09/07 12:01:10;;;;;;;6.13;1.02;;;27.10;53.30;;;;;;10486243;28;20067;-33
2022/09/07 12:06:44;;;;;;;8.55;1.55;;;27.20;54.50;;;;;;10476334;28;20068;-35
2022/09/07 12:12:15;;;;;;;8.45;1.98;;;26.60;55.80;;;;;;10411475;28;20122;-34
2022/09/07 12:17:36;;;;;;;3.63;1.05;;;25.60;56.60;;;;;;10478707;28;20071;-29
2022/09/07 12:22:55;;;;;;;2.90;1.00;;;26.00;57.30;;;;;;10481243;28;20068;-35
2022/09/07 12:27:58;;;;;;;5.90;1.10;;;27.60;54.20;;;;;;10479622;28;20133;-33
2022/09/07 12:33:04;;;;;;;15.55;4.72;;;27.20;56.00;;;;;;10490642;28;20130;-41
2022/09/07 12:38:39;;;;;;;10.48;2.35;;;27.90;55.60;;;;;;10471763;28;20094;-35
2022/09/07 12:44:09;;;;;;;5.97;1.20;;;25.90;57.20;;;;;;10466390;28;20072;-33
2022/09/07 12:49:34;;;;;;;6.35;1.80;;;26.10;56.70;;;;;;10469511;28;20098;-33
2022/09/07 12:54:44;;;;;;;8.48;1.65;;;26.10;54.90;;;;;;10446339;28;20498;-34
2022/09/07 13:00:00;;;;;;;12.30;1.83;;;25.70;54.70;;;;;;10490356;28;20536;-34
2022/09/07 13:05:14;;;;;;;5.55;1.40;;;25.80;55.40;;;;;;10479719;28;20165;-34
2022/09/07 13:10:30;;;;;;;7.65;1.27;;;26.30;55.90;;;;;;10485266;28;20060;-34
2022/09/07 13:15:39;;;;;;;4.95;1.10;;;26.20;56.20;;;;;;10469805;28;20065;-35
2022/09/07 13:20:41;;;;;;;5.53;1.00;;;26.80;55.60;;;;;;10477472;28;20440;-35
2022/09/07 13:25:48;;;;;;;4.60;1.25;;;27.00;55.50;;;;;;10486692;28;20056;-35
2022/09/07 13:31:04;;;;;;;6.50;1.35;;;27.30;54.30;;;;;;10489213;28;20048;-35
2022/09/07 13:36:25;;;;;;;3.50;0.90;;;27.20;54.20;;;;;;10481607;28;20139;-34
2022/09/07 13:41:33;;;;;;;3.10;1.30;;;27.60;54.00;;;;;;10468542;28;20060;-34
2022/09/07 13:46:56;;;;;;;6.85;1.27;;;27.40;54.30;;;;;;10508391;28;20076;-34
2022/09/07 13:52:07;;;;;;;13.07;1.45;;;27.20;54.00;;;;;;10508168;28;20123;-34
2022/09/07 13:57:19;;;;;;;9.77;2.42;;;27.00;53.10;;;;;;10492748;28;20098;-33
2022/09/07 14:02:25;;;;;;;7.68;1.70;;;26.60;54.10;;;;;;10490718;28;20071;-33
2022/09/07 14:07:29;;;;;;;7.88;1.63;;;27.20;63.60;;;;;;10491265;28;20047;-33
2022/09/07 14:12:31;;;;;;;8.80;2.05;;;26.50;56.40;;;;;;10488614;28;20139;-33
2022/09/07 14:17:34;;;;;;;6.18;1.42;;;27.40;57.10;;;;;;10492025;28;20353;-34
2022/09/07 14:22:36;;;;;;;8.85;1.83;;;27.50;53.10;;;;;;10483826;28;20041;-34
2022/09/07 14:27:39;;;;;;;4.15;1.20;;;27.20;53.60;;;;;;10475553;28;20127;-34
2022/09/07 14:32:43;;;;;;;9.48;1.42;;;28.00;53.50;;;;;;10475596;28;20136;-32
2022/09/07 14:37:46;;;;;;;4.15;1.00;;;27.40;53.80;;;;;;10487206;28;20095;-35
2022/09/07 14:42:49;;;;;;;2.40;0.88;;;28.00;53.80;;;;;;10489453;28;20064;-32
2022/09/07 14:47:55;;;;;;;3.95;1.20;;;28.40;52.90;;;;;;10492755;28;20048;-33
2022/09/07 14:52:57;;;;;;;7.65;1.50;;;28.20;53.10;;;;;;10491549;28;20084;-34
2022/09/07 14:58:21;;;;;;;4.53;1.20;;;28.00;53.80;;;;;;10483623;28;20076;-34
2022/09/07 15:03:32;;;;;;;4.97;1.25;;;28.40;52.30;;;;;;10436765;28;20044;-33
2022/09/07 15:08:39;;;;;;;4.82;1.10;;;28.50;52.10;;;;;;10477396;28;20132;-33
2022/09/07 15:13:44;;;;;;;7.05;1.27;;;27.90;53.10;;;;;;10468977;28;20558;-34
2022/09/07 15:18:54;;;;;;;5.25;0.80;;;28.00;52.50;;;;;;10463715;28;20109;-33
2022/09/07 15:23:58;;;;;;;4.53;0.93;;;28.30;52.00;;;;;;10459918;28;20483;-34
2022/09/07 15:29:00;;;;;;;4.45;1.10;;;28.00;51.50;;;;;;10461659;28;20060;-35
2022/09/07 15:34:08;;;;;;;7.68;1.30;;;28.20;53.10;;;;;;10465800;28;20041;-34
2022/09/07 15:39:16;;;;;;;4.28;1.23;;;28.40;52.10;;;;;;10463018;28;20048;-35
2022/09/07 15:44:18;;;;;;;5.07;1.10;;;28.40;52.00;;;;;;10463407;28;20045;-35
2022/09/07 15:49:21;;;;;;;5.43;1.15;;;28.60;51.90;;;;;;10468485;28;20171;-32
2022/09/07 15:54:23;;;;;;;1.67;0.73;;;28.60;52.00;;;;;;10475956;28;20044;-35
2022/09/07 15:59:25;;;;;;;3.15;0.85;;;28.70;51.80;;;;;;10470070;28;20047;-32
2022/09/07 16:04:29;;;;;;;2.55;0.80;;;28.70;51.10;;;;;;10472386;28;20478;-37
2022/09/07 16:09:30;;;;;;;4.22;1.20;;;28.50;51.80;;;;;;10485974;28;20148;-33
2022/09/07 16:14:32;;;;;;;4.47;1.17;;;28.60;51.50;;;;;;10482472;28;20133;-32
2022/09/07 16:19:35;;;;;;;8.13;1.08;;;29.20;51.90;;;;;;10473939;28;20044;-34
2022/09/07 16:24:37;;;;;;;7.20;1.52;;;28.60;51.40;;;;;;10473324;28;20087;-30
2022/09/07 16:29:39;;;;;;;3.38;0.80;;;28.60;51.00;;;;;;10477818;28;20060;-34
2022/09/07 16:34:42;;;;;;;7.28;0.98;;;28.60;51.60;;;;;;10486381;28;20062;-35
2022/09/07 16:39:44;;;;;;;2.78;1.00;;;28.70;51.20;;;;;;10466944;28;20044;-35
2022/09/07 16:44:46;;;;;;;3.35;1.00;;;28.70;51.00;;;;;;10483108;28;20076;-34
2022/09/07 16:49:50;;;;;;;4.45;0.80;;;28.70;50.80;;;;;;10473391;28;20126;-34
2022/09/07 16:54:52;;;;;;;3.20;0.77;;;28.80;50.90;;;;;;10479446;28;20115;-33
2022/09/07 16:59:53;;;;;;;1.58;0.75;;;28.80;50.00;;;;;;10467595;28;20053;-34
2022/09/07 17:04:56;;;;;;;6.03;1.08;;;28.80;50.70;;;;;;10483689;28;20267;-35
2022/09/07 17:09:58;;;;;;;3.15;0.93;;;28.80;50.70;;;;;;10475913;28;20055;-32
2022/09/07 17:15:00;;;;;;;1.92;0.80;;;28.90;50.90;;;;;;10469053;28;20494;-34
2022/09/07 17:20:04;;;;;;;4.03;1.25;;;28.90;51.00;;;;;;10477122;28;20068;-34
2022/09/07 17:25:06;;;;;;;2.90;1.15;;;28.90;51.10;;;;;;10482626;28;20054;-34
2022/09/07 17:30:09;;;;;;;3.60;1.60;;;28.80;51.00;;;;;;10472556;28;20048;-34
2022/09/07 17:35:12;;;;;;;2.83;1.40;;;28.80;51.20;;;;;;10467428;28;20087;-33
2022/09/07 17:40:14;;;;;;;3.47;1.30;;;28.80;51.30;;;;;;10466445;28;20131;-34
2022/09/07 17:45:16;;;;;;;3.33;1.27;;;28.80;51.40;;;;;;10472774;28;20076;-34
2022/09/07 17:50:19;;;;;;;4.43;1.23;;;28.80;51.50;;;;;;10483019;28;20581;-34
2022/09/07 17:55:21;;;;;;;4.05;0.98;;;28.80;51.60;;;;;;10471015;28;20128;-33
2022/09/07 18:00:23;;;;;;;5.30;1.63;;;28.80;51.80;;;;;;10466100;28;20132;-35
2022/09/07 18:05:26;;;;;;;2.63;0.75;;;28.80;51.80;;;;;;10476931;28;20049;-33
2022/09/07 18:10:28;;;;;;;3.45;0.90;;;28.70;51.80;;;;;;10480824;28;20116;-35
2022/09/07 18:15:30;;;;;;;5.53;1.35;;;28.70;51.90;;;;;;10462319;28;20080;-35
2022/09/07 18:20:33;;;;;;;4.45;1.10;;;28.70;52.00;;;;;;10480333;28;20139;-35
2022/09/07 18:25:36;;;;;;;2.25;1.00;;;28.60;52.10;;;;;;10476639;28;20071;-37
2022/09/07 18:30:41;;;;;;;3.05;1.25;;;28.60;52.10;;;;;;10482451;28;20482;-34
2022/09/07 18:35:46;;;;;;;3.90;1.30;;;28.60;52.10;;;;;;10477459;28;20048;-34
2022/09/07 18:40:47;;;;;;;2.17;0.93;;;28.60;52.20;;;;;;10480595;28;20135;-31
2022/09/07 18:45:49;;;;;;;3.80;1.33;;;28.70;52.40;;;;;;10476931;28;20132;-36
2022/09/07 18:50:54;;;;;;;4.70;1.48;;;28.50;52.30;;;;;;10488554;28;20067;-36
2022/09/07 18:56:02;;;;;;;2.72;1.17;;;28.40;52.20;;;;;;10477141;28;20151;-36
2022/09/07 19:01:05;;;;;;;4.35;1.30;;;28.40;52.10;;;;;;10471558;28;20465;-34
2022/09/07 19:06:11;;;;;;;4.72;1.20;;;28.40;52.20;;;;;;10476640;28;20044;-35
2022/09/07 19:11:16;;;;;;;6.50;1.25;;;28.40;52.30;;;;;;10485687;28;20048;-34
2022/09/07 19:16:19;;;;;;;2.67;1.40;;;28.40;52.50;;;;;;10487201;28;20048;-34
2022/09/07 19:21:25;;;;;;;3.15;1.13;;;28.40;52.70;;;;;;10484770;28;20052;-34
2022/09/07 19:26:29;;;;;;;3.47;1.48;;;28.30;52.60;;;;;;10484107;28;20037;-34
2022/09/07 19:31:31;;;;;;;5.05;1.60;;;28.30;52.80;;;;;;10475465;28;20072;-35
2022/09/07 19:36:34;;;;;;;8.25;1.80;;;28.20;52.90;;;;;;10484399;28;20655;-32
2022/09/07 19:41:39;;;;;;;4.45;1.58;;;28.20;53.00;;;;;;10474658;28;20132;-34
2022/09/07 19:46:43;;;;;;;2.78;1.23;;;28.00;54.30;;;;;;10476986;28;20401;-34
2022/09/07 19:51:48;;;;;;;7.68;1.50;;;28.00;53.50;;;;;;10491948;28;20416;-35
2022/09/07 19:56:50;;;;;;;7.68;1.55;;;27.90;53.90;;;;;;10492168;28;20049;-34
2022/09/07 20:01:52;;;;;;;5.82;1.48;;;28.00;53.40;;;;;;10466881;28;20045;-34
2022/09/07 20:06:55;;;;;;;3.88;1.10;;;28.00;53.40;;;;;;10468845;28;20052;-34
2022/09/07 20:11:57;;;;;;;3.90;1.23;;;28.00;53.40;;;;;;10472398;28;20140;-33
2022/09/07 20:17:00;;;;;;;4.45;1.17;;;28.00;53.40;;;;;;10464025;28;20049;-33
2022/09/07 20:22:03;;;;;;;6.32;1.13;;;28.00;53.60;;;;;;10474435;28;20542;-34
2022/09/07 20:27:05;;;;;;;4.35;1.02;;;27.90;53.60;;;;;;10469278;28;20106;-34
2022/09/07 20:32:07;;;;;;;5.95;1.50;;;28.00;53.70;;;;;;10476993;28;20535;-31
2022/09/07 20:37:10;;;;;;;5.25;1.30;;;27.90;53.70;;;;;;10480913;28;20123;-33
2022/09/07 20:42:12;;;;;;;4.65;1.20;;;27.90;53.80;;;;;;10476141;28;20416;-32
2022/09/07 20:47:13;;;;;;;5.22;1.25;;;27.90;53.80;;;;;;10459608;28;20600;-30
2022/09/07 20:52:16;;;;;;;2.38;1.00;;;27.90;53.90;;;;;;10462405;28;20136;-32
2022/09/07 20:57:19;;;;;;;4.95;1.20;;;27.80;54.00;;;;;;10457911;28;20124;-31
2022/09/07 21:02:21;;;;;;;2.80;0.65;;;27.80;54.10;;;;;;10458673;28;20127;-31
2022/09/07 21:07:24;;;;;;;4.82;1.20;;;27.80;54.20;;;;;;10469761;28;20154;-34
2022/09/07 21:12:26;;;;;;;4.95;1.10;;;27.80;54.20;;;;;;10472928;28;20146;-33
2022/09/07 21:17:27;;;;;;;7.57;1.15;;;27.80;54.30;;;;;;10479316;28;20134;-31
2022/09/07 21:22:31;;;;;;;4.75;0.98;;;27.70;54.30;;;;;;10480179;28;20139;-32
2022/09/07 21:27:36;;;;;;;2.78;0.80;;;27.70;54.40;;;;;;10470472;28;20056;-32
2022/09/07 21:32:39;;;;;;;2.30;0.70;;;27.70;54.50;;;;;;10466897;28;20080;-33
2022/09/07 21:37:42;;;;;;;2.55;0.75;;;27.60;54.50;;;;;;10466195;28;20045;-34
2022/09/07 21:42:44;;;;;;;4.72;1.00;;;27.60;54.50;;;;;;10453214;28;20146;-31
2022/09/07 21:47:46;;;;;;;3.78;0.95;;;27.60;54.60;;;;;;10435014;28;20416;-33
2022/09/07 21:52:49;;;;;;;1.85;0.90;;;27.60;54.60;;;;;;10430915;28;20139;-34
2022/09/07 21:57:51;;;;;;;2.38;0.80;;;27.50;54.60;;;;;;10461305;28;20073;-34
2022/09/07 22:02:53;;;;;;;2.72;1.08;;;27.50;54.70;;;;;;10445606;28;20048;-33
2022/09/07 22:07:56;;;;;;;4.20;1.15;;;27.50;54.70;;;;;;10433654;28;20143;-32
2022/09/07 22:12:58;;;;;;;2.97;0.90;;;27.80;55.10;;;;;;10444311;28;20076;-34
2022/09/07 22:17:59;;;;;;;3.13;1.02;;;27.40;54.90;;;;;;10423232;28;20100;-33
2022/09/07 22:23:03;;;;;;;3.05;1.00;;;27.40;54.90;;;;;;10453156;28;20162;-34
2022/09/07 22:28:05;;;;;;;4.10;0.93;;;27.40;54.90;;;;;;10426002;28;20053;-35
2022/09/07 22:33:07;;;;;;;1.40;0.73;;;27.40;55.00;;;;;;10418464;28;20099;-39
2022/09/07 22:38:10;;;;;;;1.75;0.93;;;27.40;55.10;;;;;;10448815;28;20471;-37
2022/09/07 22:43:12;;;;;;;2.15;1.05;;;27.30;55.10;;;;;;10430295;28;20580;-34
2022/09/07 22:48:14;;;;;;;2.08;0.90;;;27.30;55.10;;;;;;10436152;28;20053;-36
2022/09/07 22:53:17;;;;;;;1.33;0.68;;;27.30;55.20;;;;;;10435265;28;20136;-39
2022/09/07 22:58:19;;;;;;;2.53;0.90;;;27.30;55.30;;;;;;10423971;28;20041;-33
2022/09/07 23:03:21;;;;;;;1.23;1.00;;;27.90;55.80;;;;;;10428383;28;20114;-37
2022/09/07 23:08:24;;;;;;;4.10;1.00;;;27.20;55.40;;;;;;10441703;28;20086;-29
2022/09/07 23:13:26;;;;;;;1.65;0.70;;;27.20;55.50;;;;;;10447024;28;20044;-37
2022/09/07 23:18:28;;;;;;;3.53;0.85;;;27.20;55.40;;;;;;10433636;28;20546;-39
2022/09/07 23:23:31;;;;;;;2.58;1.00;;;27.20;55.60;;;;;;10433938;28;20076;-41
2022/09/07 23:28:33;;;;;;;2.50;0.80;;;27.10;55.60;;;;;;10438532;28;20064;-42
2022/09/07 23:33:36;;;;;;;1.55;0.60;;;27.20;55.70;;;;;;10445652;28;20055;-34
2022/09/07 23:38:39;;;;;;;5.47;1.00;;;27.10;55.70;;;;;;10445558;28;20083;-37
2022/09/07 23:43:41;;;;;;;3.55;0.95;;;27.10;55.80;;;;;;10421640;28;20045;-34
2022/09/07 23:48:43;;;;;;;2.65;0.90;;;27.10;55.80;;;;;;10450715;28;20052;-39
2022/09/07 23:53:47;;;;;;;4.10;0.88;;;27.00;55.90;;;;;;10426339;28;20049;-34
2022/09/07 23:58:50;;;;;;;3.08;1.10;;;27.00;56.00;;;;;;10428638;28;20052;-34
